sensor_id;sensor_type;location;lat;lon;timestamp;pressure;altitude;pressure_sealevel;temperature;humidity
76940;BME280;65885;55.848;35.916;2023-04-24T00:02:24;99260.91;;;4.91;46.67
76940;BME280;65885;55.848;35.916;2023-04-24T00:04:52;99267.00;;;4.89;45.35
76940;BME280;65885;55.848;35.916;2023-04-24T00:07:20;99256.69;;;4.86;45.92
76940;BME280;65885;55.848;35.916;2023-04-24T00:09:48;99265.38;;;4.83;46.39
76940;BME280;65885;55.848;35.916;2023-04-24T00:12:17;99259.38;;;4.81;47.37
76940;BME280;65885;55.848;35.916;2023-04-24T00:14:44;99249.06;;;4.78;47.75
76940;BME280;65885;55.848;35.916;2023-04-24T00:17:12;99248.25;;;4.76;48.32
76940;BME280;65885;55.848;35.916;2023-04-24T00:19:39;99259.25;;;4.87;46.27
76940;BME280;65885;55.848;35.916;2023-04-24T00:22:07;99251.84;;;5.09;45.01
76940;BME280;65885;55.848;35.916;2023-04-24T00:24:35;99242.53;;;5.36;47.24
76940;BME280;65885;55.848;35.916;2023-04-24T00:27:04;99243.72;;;5.60;45.06
76940;BME280;65885;55.848;35.916;2023-04-24T00:29:32;99245.75;;;5.81;45.06
76940;BME280;65885;55.848;35.916;2023-04-24T00:31:59;99245.34;;;6.00;43.89
76940;BME280;65885;55.848;35.916;2023-04-24T00:34:27;99241.44;;;6.16;43.75
76940;BME280;65885;55.848;35.916;2023-04-24T00:36:55;99242.72;;;6.32;44.43
76940;BME280;65885;55.848;35.916;2023-04-24T00:39:23;99244.03;;;6.47;45.19
76940;BME280;65885;55.848;35.916;2023-04-24T00:41:50;99233.22;;;6.61;44.47
76940;BME280;65885;55.848;35.916;2023-04-24T00:44:19;99225.03;;;6.75;44.84
76940;BME280;65885;55.848;35.916;2023-04-24T00:46:48;99228.16;;;6.86;44.07
76940;BME280;65885;55.848;35.916;2023-04-24T00:49:20;99246.84;;;7.00;42.35
76940;BME280;65885;55.848;35.916;2023-04-24T00:51:48;99243.88;;;7.12;42.59
76940;BME280;65885;55.848;35.916;2023-04-24T00:54:17;99229.63;;;7.22;43.39
76940;BME280;65885;55.848;35.916;2023-04-24T00:56:45;99233.75;;;7.30;42.42
76940;BME280;65885;55.848;35.916;2023-04-24T00:59:13;99245.66;;;7.38;41.55
76940;BME280;65885;55.848;35.916;2023-04-24T01:01:45;99233.28;;;7.45;41.02
76940;BME280;65885;55.848;35.916;2023-04-24T01:04:12;99227.81;;;7.53;42.67
76940;BME280;65885;55.848;35.916;2023-04-24T01:06:43;99234.59;;;7.58;42.04
76940;BME280;65885;55.848;35.916;2023-04-24T01:09:12;99237.91;;;7.63;40.99
76940;BME280;65885;55.848;35.916;2023-04-24T01:11:41;99231.66;;;7.67;40.76
76940;BME280;65885;55.848;35.916;2023-04-24T01:14:09;99234.13;;;7.72;41.75
76940;BME280;65885;55.848;35.916;2023-04-24T01:16:37;99227.16;;;7.72;41.42
76940;BME280;65885;55.848;35.916;2023-04-24T01:19:07;99233.22;;;7.73;41.49
76940;BME280;65885;55.848;35.916;2023-04-24T01:21:36;99228.09;;;7.70;41.13
76940;BME280;65885;55.848;35.916;2023-04-24T01:24:06;99228.16;;;7.68;39.96
76940;BME280;65885;55.848;35.916;2023-04-24T01:26:34;99230.88;;;7.65;39.68
76940;BME280;65885;55.848;35.916;2023-04-24T01:29:02;99231.81;;;7.63;40.31
76940;BME280;65885;55.848;35.916;2023-04-24T01:31:30;99224.16;;;7.58;41.57
76940;BME280;65885;55.848;35.916;2023-04-24T01:33:57;99224.28;;;7.54;40.48
76940;BME280;65885;55.848;35.916;2023-04-24T01:36:26;99223.53;;;7.50;40.49
76940;BME280;65885;55.848;35.916;2023-04-24T01:38:54;99216.72;;;7.46;39.93
76940;BME280;65885;55.848;35.916;2023-04-24T01:41:23;99221.13;;;7.44;40.48
76940;BME280;65885;55.848;35.916;2023-04-24T01:43:51;99222.97;;;7.40;39.75
76940;BME280;65885;55.848;35.916;2023-04-24T01:46:18;99224.00;;;7.36;39.78
76940;BME280;65885;55.848;35.916;2023-04-24T01:48:46;99220.09;;;7.21;39.24
76940;BME280;65885;55.848;35.916;2023-04-24T01:51:13;99223.31;;;7.02;39.75
76940;BME280;65885;55.848;35.916;2023-04-24T01:53:41;99225.78;;;6.78;40.24
76940;BME280;65885;55.848;35.916;2023-04-24T01:56:08;99221.28;;;6.54;40.01
76940;BME280;65885;55.848;35.916;2023-04-24T01:58:37;99221.13;;;6.29;40.60
76940;BME280;65885;55.848;35.916;2023-04-24T02:01:06;99225.22;;;6.06;41.31
76940;BME280;65885;55.848;35.916;2023-04-24T02:03:33;99224.88;;;5.84;41.96
76940;BME280;65885;55.848;35.916;2023-04-24T02:06:01;99233.97;;;5.67;41.39
76940;BME280;65885;55.848;35.916;2023-04-24T02:08:28;99235.25;;;5.50;41.85
76940;BME280;65885;55.848;35.916;2023-04-24T02:10:56;99228.72;;;5.34;42.13
76940;BME280;65885;55.848;35.916;2023-04-24T02:13:23;99233.38;;;5.20;43.00
76940;BME280;65885;55.848;35.916;2023-04-24T02:15:52;99228.50;;;5.08;43.19
76940;BME280;65885;55.848;35.916;2023-04-24T02:18:40;99233.13;;;4.93;42.93
76940;BME280;65885;55.848;35.916;2023-04-24T02:21:07;99228.16;;;4.83;43.22
76940;BME280;65885;55.848;35.916;2023-04-24T02:23:34;99234.41;;;4.74;43.89
76940;BME280;65885;55.848;35.916;2023-04-24T02:26:02;99227.66;;;4.65;43.79
76940;BME280;65885;55.848;35.916;2023-04-24T02:28:29;99238.22;;;4.58;44.00
76940;BME280;65885;55.848;35.916;2023-04-24T02:30:59;99237.50;;;4.51;44.06
76940;BME280;65885;55.848;35.916;2023-04-24T02:33:26;99236.75;;;4.46;44.75
76940;BME280;65885;55.848;35.916;2023-04-24T02:35:54;99239.41;;;4.41;44.46
76940;BME280;65885;55.848;35.916;2023-04-24T02:38:22;99243.84;;;4.36;44.34
76940;BME280;65885;55.848;35.916;2023-04-24T02:40:49;99250.00;;;4.32;44.37
76940;BME280;65885;55.848;35.916;2023-04-24T02:43:16;99244.84;;;4.29;44.70
76940;BME280;65885;55.848;35.916;2023-04-24T02:45:44;99248.31;;;4.28;45.79
76940;BME280;65885;55.848;35.916;2023-04-24T02:48:13;99266.53;;;4.27;46.05
76940;BME280;65885;55.848;35.916;2023-04-24T02:50:40;99258.78;;;4.25;45.23
76940;BME280;65885;55.848;35.916;2023-04-24T02:53:08;99265.69;;;4.26;44.90
76940;BME280;65885;55.848;35.916;2023-04-24T02:55:35;99260.50;;;4.26;44.95
76940;BME280;65885;55.848;35.916;2023-04-24T02:58:02;99276.06;;;4.26;44.60
76940;BME280;65885;55.848;35.916;2023-04-24T03:00:31;99273.44;;;4.28;44.97
76940;BME280;65885;55.848;35.916;2023-04-24T03:02:58;99276.00;;;4.29;45.00
76940;BME280;65885;55.848;35.916;2023-04-24T03:05:27;99275.09;;;4.32;45.35
76940;BME280;65885;55.848;35.916;2023-04-24T03:07:56;99271.63;;;4.33;45.56
76940;BME280;65885;55.848;35.916;2023-04-24T03:10:24;99281.97;;;4.34;45.24
76940;BME280;65885;55.848;35.916;2023-04-24T03:12:52;99276.72;;;4.36;44.66
76940;BME280;65885;55.848;35.916;2023-04-24T03:15:20;99287.94;;;4.39;45.07
76940;BME280;65885;55.848;35.916;2023-04-24T03:17:48;99274.00;;;4.43;47.11
76940;BME280;65885;55.848;35.916;2023-04-24T03:20:15;99279.16;;;4.47;47.06
76940;BME280;65885;55.848;35.916;2023-04-24T03:22:44;99279.94;;;4.50;46.97
76940;BME280;65885;55.848;35.916;2023-04-24T03:25:12;99275.47;;;4.57;48.73
76940;BME280;65885;55.848;35.916;2023-04-24T03:27:39;99290.97;;;4.60;48.70
76940;BME280;65885;55.848;35.916;2023-04-24T03:30:08;99289.16;;;4.65;48.05
76940;BME280;65885;55.848;35.916;2023-04-24T03:32:36;99282.13;;;4.70;47.53
76940;BME280;65885;55.848;35.916;2023-04-24T03:35:05;99283.72;;;4.77;48.64
76940;BME280;65885;55.848;35.916;2023-04-24T03:37:33;99287.06;;;4.82;47.77
76940;BME280;65885;55.848;35.916;2023-04-24T03:40:03;99277.44;;;4.87;46.77
76940;BME280;65885;55.848;35.916;2023-04-24T03:42:31;99280.72;;;4.95;47.09
76940;BME280;65885;55.848;35.916;2023-04-24T03:44:59;99280.59;;;5.01;47.05
76940;BME280;65885;55.848;35.916;2023-04-24T03:47:26;99279.56;;;5.09;46.77
76940;BME280;65885;55.848;35.916;2023-04-24T03:49:54;99287.16;;;5.18;46.93
76940;BME280;65885;55.848;35.916;2023-04-24T03:52:22;99290.41;;;5.27;47.85
76940;BME280;65885;55.848;35.916;2023-04-24T03:54:49;99283.28;;;5.37;47.35
76940;BME280;65885;55.848;35.916;2023-04-24T03:57:18;99285.63;;;5.48;47.13
76940;BME280;65885;55.848;35.916;2023-04-24T03:59:46;99288.78;;;5.61;47.56
76940;BME280;65885;55.848;35.916;2023-04-24T04:02:13;99276.97;;;5.81;47.70
76940;BME280;65885;55.848;35.916;2023-04-24T04:04:41;99285.03;;;6.08;47.32
76940;BME280;65885;55.848;35.916;2023-04-24T04:07:08;99284.22;;;6.38;47.37
76940;BME280;65885;55.848;35.916;2023-04-24T04:09:37;99286.09;;;6.64;47.33
76940;BME280;65885;55.848;35.916;2023-04-24T04:12:04;99296.03;;;6.83;46.91
76940;BME280;65885;55.848;35.916;2023-04-24T04:14:33;99294.78;;;6.96;47.17
76940;BME280;65885;55.848;35.916;2023-04-24T04:17:01;99293.50;;;7.09;47.80
76940;BME280;65885;55.848;35.916;2023-04-24T04:19:28;99294.00;;;7.22;47.53
76940;BME280;65885;55.848;35.916;2023-04-24T04:21:56;99301.34;;;7.37;47.74
76940;BME280;65885;55.848;35.916;2023-04-24T04:24:24;99298.31;;;7.51;47.82
76940;BME280;65885;55.848;35.916;2023-04-24T04:26:52;99294.31;;;7.67;48.20
76940;BME280;65885;55.848;35.916;2023-04-24T04:29:22;99305.91;;;7.85;48.26
76940;BME280;65885;55.848;35.916;2023-04-24T04:31:51;99301.78;;;8.04;48.08
76940;BME280;65885;55.848;35.916;2023-04-24T04:34:18;99309.81;;;8.25;48.86
76940;BME280;65885;55.848;35.916;2023-04-24T04:36:46;99306.53;;;8.45;49.37
76940;BME280;65885;55.848;35.916;2023-04-24T04:39:13;99306.63;;;8.67;49.49
76940;BME280;65885;55.848;35.916;2023-04-24T04:41:42;99300.69;;;8.86;48.52
76940;BME280;65885;55.848;35.916;2023-04-24T04:44:10;99312.97;;;9.08;49.01
76940;BME280;65885;55.848;35.916;2023-04-24T04:46:38;99299.00;;;9.31;49.31
76940;BME280;65885;55.848;35.916;2023-04-24T04:49:09;99299.91;;;9.52;49.07
76940;BME280;65885;55.848;35.916;2023-04-24T04:51:37;99294.66;;;9.75;48.73
76940;BME280;65885;55.848;35.916;2023-04-24T04:54:04;99295.47;;;9.97;48.78
76940;BME280;65885;55.848;35.916;2023-04-24T04:56:31;99305.00;;;10.20;48.41
76940;BME280;65885;55.848;35.916;2023-04-24T04:58:59;99311.91;;;10.43;48.37
76940;BME280;65885;55.848;35.916;2023-04-24T05:01:26;99310.91;;;10.66;48.18
76940;BME280;65885;55.848;35.916;2023-04-24T05:03:54;99309.09;;;10.87;48.03
76940;BME280;65885;55.848;35.916;2023-04-24T05:06:23;99299.31;;;11.09;47.77
76940;BME280;65885;55.848;35.916;2023-04-24T05:08:51;99303.56;;;11.31;47.61
76940;BME280;65885;55.848;35.916;2023-04-24T05:11:22;99307.81;;;11.52;47.58
76940;BME280;65885;55.848;35.916;2023-04-24T05:13:50;99298.84;;;11.75;47.38
76940;BME280;65885;55.848;35.916;2023-04-24T05:16:17;99307.41;;;11.98;47.00
76940;BME280;65885;55.848;35.916;2023-04-24T05:18:44;99308.91;;;12.20;46.32
76940;BME280;65885;55.848;35.916;2023-04-24T05:21:12;99307.72;;;12.43;46.24
76940;BME280;65885;55.848;35.916;2023-04-24T05:23:41;99307.47;;;12.65;45.48
76940;BME280;65885;55.848;35.916;2023-04-24T05:26:08;99310.69;;;12.88;45.14
76940;BME280;65885;55.848;35.916;2023-04-24T05:28:36;99315.78;;;13.06;45.01
76940;BME280;65885;55.848;35.916;2023-04-24T05:31:03;99320.03;;;13.26;45.03
76940;BME280;65885;55.848;35.916;2023-04-24T05:33:31;99305.09;;;13.43;44.57
76940;BME280;65885;55.848;35.916;2023-04-24T05:35:58;99305.91;;;13.59;44.49
76940;BME280;65885;55.848;35.916;2023-04-24T05:38:25;99306.09;;;13.72;44.03
76940;BME280;65885;55.848;35.916;2023-04-24T05:40:54;99305.31;;;13.85;43.44
76940;BME280;65885;55.848;35.916;2023-04-24T05:43:22;99298.47;;;13.97;42.83
76940;BME280;65885;55.848;35.916;2023-04-24T05:45:49;99308.31;;;14.09;42.85
76940;BME280;65885;55.848;35.916;2023-04-24T05:48:17;99302.41;;;14.20;42.33
76940;BME280;65885;55.848;35.916;2023-04-24T05:50:45;99305.28;;;14.31;42.14
76940;BME280;65885;55.848;35.916;2023-04-24T05:53:13;99301.16;;;14.41;41.93
76940;BME280;65885;55.848;35.916;2023-04-24T05:55:41;99298.56;;;14.56;41.54
76940;BME280;65885;55.848;35.916;2023-04-24T05:58:10;99310.09;;;14.69;41.67
76940;BME280;65885;55.848;35.916;2023-04-24T06:00:37;99307.47;;;14.83;41.59
76940;BME280;65885;55.848;35.916;2023-04-24T06:03:05;99310.13;;;14.97;41.60
76940;BME280;65885;55.848;35.916;2023-04-24T06:05:33;99312.66;;;15.13;41.23
76940;BME280;65885;55.848;35.916;2023-04-24T06:08:01;99308.22;;;15.28;41.32
76940;BME280;65885;55.848;35.916;2023-04-24T06:10:28;99306.28;;;15.44;41.40
76940;BME280;65885;55.848;35.916;2023-04-24T06:12:55;99301.72;;;15.61;41.05
76940;BME280;65885;55.848;35.916;2023-04-24T06:15:29;99300.53;;;15.79;40.83
76940;BME280;65885;55.848;35.916;2023-04-24T06:17:57;99303.47;;;16.01;40.95
76940;BME280;65885;55.848;35.916;2023-04-24T06:20:24;99312.34;;;16.27;40.68
76940;BME280;65885;55.848;35.916;2023-04-24T06:22:52;99312.38;;;16.53;39.95
76940;BME280;65885;55.848;35.916;2023-04-24T06:25:20;99308.06;;;16.77;39.49
76940;BME280;65885;55.848;35.916;2023-04-24T06:27:47;99307.53;;;16.98;39.33
76940;BME280;65885;55.848;35.916;2023-04-24T06:30:15;99308.81;;;17.17;38.94
76940;BME280;65885;55.848;35.916;2023-04-24T06:32:44;99314.47;;;17.37;38.58
76940;BME280;65885;55.848;35.916;2023-04-24T06:35:11;99306.91;;;17.56;37.98
76940;BME280;65885;55.848;35.916;2023-04-24T06:37:39;99307.50;;;17.72;37.74
76940;BME280;65885;55.848;35.916;2023-04-24T06:40:09;99309.75;;;17.90;37.48
76940;BME280;65885;55.848;35.916;2023-04-24T06:42:36;99310.94;;;18.10;37.49
76940;BME280;65885;55.848;35.916;2023-04-24T06:45:04;99308.72;;;18.27;37.15
76940;BME280;65885;55.848;35.916;2023-04-24T06:47:35;99315.31;;;18.46;36.62
76940;BME280;65885;55.848;35.916;2023-04-24T06:50:06;99318.47;;;18.62;35.97
76940;BME280;65885;55.848;35.916;2023-04-24T06:52:33;99314.94;;;18.74;35.48
76940;BME280;65885;55.848;35.916;2023-04-24T06:55:01;99313.25;;;18.84;35.11
76940;BME280;65885;55.848;35.916;2023-04-24T06:57:32;99313.97;;;18.98;35.03
76940;BME280;65885;55.848;35.916;2023-04-24T06:59:59;99324.84;;;19.17;34.96
76940;BME280;65885;55.848;35.916;2023-04-24T07:02:26;99319.66;;;19.38;34.74
76940;BME280;65885;55.848;35.916;2023-04-24T07:04:54;99323.63;;;19.55;34.72
76940;BME280;65885;55.848;35.916;2023-04-24T07:07:23;99326.75;;;19.71;34.61
76940;BME280;65885;55.848;35.916;2023-04-24T07:09:51;99320.31;;;19.85;34.52
76940;BME280;65885;55.848;35.916;2023-04-24T07:12:18;99319.19;;;19.99;34.61
76940;BME280;65885;55.848;35.916;2023-04-24T07:14:47;99325.91;;;20.14;34.15
76940;BME280;65885;55.848;35.916;2023-04-24T07:17:15;99322.09;;;20.28;33.67
76940;BME280;65885;55.848;35.916;2023-04-24T07:19:42;99326.16;;;20.43;33.35
76940;BME280;65885;55.848;35.916;2023-04-24T07:22:10;99326.00;;;20.56;33.32
76940;BME280;65885;55.848;35.916;2023-04-24T07:24:43;99333.53;;;20.71;33.03
76940;BME280;65885;55.848;35.916;2023-04-24T07:27:11;99326.28;;;20.83;32.44
76940;BME280;65885;55.848;35.916;2023-04-24T07:29:40;99332.56;;;20.93;32.10
76940;BME280;65885;55.848;35.916;2023-04-24T07:32:08;99330.78;;;21.03;32.19
76940;BME280;65885;55.848;35.916;2023-04-24T07:34:35;99330.81;;;21.13;32.14
76940;BME280;65885;55.848;35.916;2023-04-24T07:37:03;99327.22;;;21.24;32.00
76940;BME280;65885;55.848;35.916;2023-04-24T07:39:31;99323.78;;;21.33;31.75
76940;BME280;65885;55.848;35.916;2023-04-24T07:42:00;99323.50;;;21.46;31.46
76940;BME280;65885;55.848;35.916;2023-04-24T07:44:28;99315.84;;;21.62;31.62
76940;BME280;65885;55.848;35.916;2023-04-24T07:46:55;99323.19;;;21.79;31.27
76940;BME280;65885;55.848;35.916;2023-04-24T07:49:23;99324.91;;;22.00;31.00
76940;BME280;65885;55.848;35.916;2023-04-24T07:51:50;99317.78;;;22.20;30.94
76940;BME280;65885;55.848;35.916;2023-04-24T07:54:18;99316.38;;;22.45;30.86
76940;BME280;65885;55.848;35.916;2023-04-24T07:56:45;99319.81;;;22.74;30.56
76940;BME280;65885;55.848;35.916;2023-04-24T07:59:14;99307.50;;;23.10;29.44
76940;BME280;65885;55.848;35.916;2023-04-24T08:01:41;99311.84;;;23.48;28.92
76940;BME280;65885;55.848;35.916;2023-04-24T08:04:09;99314.63;;;23.84;28.85
76940;BME280;65885;55.848;35.916;2023-04-24T08:06:36;99313.94;;;24.18;28.80
76940;BME280;65885;55.848;35.916;2023-04-24T08:09:04;99317.13;;;24.49;29.15
76940;BME280;65885;55.848;35.916;2023-04-24T08:11:31;99313.97;;;24.79;28.62
76940;BME280;65885;55.848;35.916;2023-04-24T08:13:59;99311.69;;;25.10;27.57
76940;BME280;65885;55.848;35.916;2023-04-24T08:16:28;99306.94;;;25.38;26.95
76940;BME280;65885;55.848;35.916;2023-04-24T08:18:55;99294.28;;;25.65;26.39
76940;BME280;65885;55.848;35.916;2023-04-24T08:21:23;99298.72;;;25.90;25.70
76940;BME280;65885;55.848;35.916;2023-04-24T08:23:52;99295.56;;;26.11;25.06
76940;BME280;65885;55.848;35.916;2023-04-24T08:26:19;99294.06;;;26.25;23.88
76940;BME280;65885;55.848;35.916;2023-04-24T08:28:46;99282.31;;;26.26;22.70
76940;BME280;65885;55.848;35.916;2023-04-24T08:31:14;99282.66;;;26.15;22.12
76940;BME280;65885;55.848;35.916;2023-04-24T08:33:42;99290.53;;;26.00;22.03
76940;BME280;65885;55.848;35.916;2023-04-24T08:36:11;99285.81;;;25.86;22.44
76940;BME280;65885;55.848;35.916;2023-04-24T08:38:39;99281.09;;;25.80;21.94
76940;BME280;65885;55.848;35.916;2023-04-24T08:41:07;99279.88;;;25.74;21.86
76940;BME280;65885;55.848;35.916;2023-04-24T08:43:37;99280.38;;;25.69;21.77
76940;BME280;65885;55.848;35.916;2023-04-24T08:46:05;99268.59;;;25.70;21.78
76940;BME280;65885;55.848;35.916;2023-04-24T08:48:33;99270.50;;;25.78;21.65
76940;BME280;65885;55.848;35.916;2023-04-24T08:51:02;99267.16;;;25.92;21.75
76940;BME280;65885;55.848;35.916;2023-04-24T08:53:32;99258.09;;;26.10;22.24
76940;BME280;65885;55.848;35.916;2023-04-24T08:56:01;99257.09;;;26.35;22.25
76940;BME280;65885;55.848;35.916;2023-04-24T08:58:29;99253.22;;;26.62;21.79
76940;BME280;65885;55.848;35.916;2023-04-24T09:00:58;99247.09;;;26.93;22.17
76940;BME280;65885;55.848;35.916;2023-04-24T09:03:27;99247.00;;;27.25;21.32
76940;BME280;65885;55.848;35.916;2023-04-24T09:05:56;99255.28;;;27.55;20.75
76940;BME280;65885;55.848;35.916;2023-04-24T09:08:26;99253.28;;;27.80;20.36
76940;BME280;65885;55.848;35.916;2023-04-24T09:10:55;99249.09;;;28.00;19.32
76940;BME280;65885;55.848;35.916;2023-04-24T09:13:24;99249.53;;;28.12;18.83
76940;BME280;65885;55.848;35.916;2023-04-24T09:15:52;99245.13;;;28.11;18.59
76940;BME280;65885;55.848;35.916;2023-04-24T09:18:20;99241.44;;;28.12;19.13
76940;BME280;65885;55.848;35.916;2023-04-24T09:21:02;99237.84;;;28.19;19.12
76940;BME280;65885;55.848;35.916;2023-04-24T09:23:31;99240.81;;;28.25;18.20
76940;BME280;65885;55.848;35.916;2023-04-24T09:26:02;99239.38;;;28.14;17.59
76940;BME280;65885;55.848;35.916;2023-04-24T09:28:32;99236.97;;;27.96;17.13
76940;BME280;65885;55.848;35.916;2023-04-24T09:31:05;99228.25;;;27.71;17.67
76940;BME280;65885;55.848;35.916;2023-04-24T09:33:33;99231.53;;;27.50;18.22
76940;BME280;65885;55.848;35.916;2023-04-24T09:36:01;99227.03;;;27.43;18.09
76940;BME280;65885;55.848;35.916;2023-04-24T09:38:35;99222.38;;;27.36;18.21
76940;BME280;65885;55.848;35.916;2023-04-24T09:41:05;99218.19;;;27.26;17.72
76940;BME280;65885;55.848;35.916;2023-04-24T09:43:34;99219.47;;;27.07;17.81
76940;BME280;65885;55.848;35.916;2023-04-24T09:46:05;99218.69;;;26.82;17.82
76940;BME280;65885;55.848;35.916;2023-04-24T09:48:34;99216.75;;;26.51;17.93
76940;BME280;65885;55.848;35.916;2023-04-24T09:51:03;99211.56;;;26.17;17.98
76940;BME280;65885;55.848;35.916;2023-04-24T09:53:34;99214.41;;;25.91;18.91
76940;BME280;65885;55.848;35.916;2023-04-24T09:56:07;99209.84;;;25.76;19.22
76940;BME280;65885;55.848;35.916;2023-04-24T09:58:35;99206.84;;;25.79;19.48
76940;BME280;65885;55.848;35.916;2023-04-24T10:01:04;99211.56;;;25.93;19.10
76940;BME280;65885;55.848;35.916;2023-04-24T10:03:32;99205.53;;;26.07;19.14
76940;BME280;65885;55.848;35.916;2023-04-24T10:06:01;99210.72;;;26.25;18.86
76940;BME280;65885;55.848;35.916;2023-04-24T10:08:35;99204.00;;;26.45;18.88
76940;BME280;65885;55.848;35.916;2023-04-24T10:11:03;99207.31;;;26.64;19.03
76940;BME280;65885;55.848;35.916;2023-04-24T10:13:31;99204.56;;;26.80;18.89
76940;BME280;65885;55.848;35.916;2023-04-24T10:16:00;99200.13;;;26.95;18.54
76940;BME280;65885;55.848;35.916;2023-04-24T10:18:29;99203.16;;;27.08;18.54
76940;BME280;65885;55.848;35.916;2023-04-24T10:20:59;99186.56;;;27.20;18.77
76940;BME280;65885;55.848;35.916;2023-04-24T10:23:28;99191.22;;;27.34;18.46
76940;BME280;65885;55.848;35.916;2023-04-24T10:26:01;99195.16;;;27.54;18.15
76940;BME280;65885;55.848;35.916;2023-04-24T10:28:30;99199.28;;;27.65;17.49
76940;BME280;65885;55.848;35.916;2023-04-24T10:30:59;99193.59;;;27.60;17.30
76940;BME280;65885;55.848;35.916;2023-04-24T10:33:28;99191.47;;;27.47;17.70
76940;BME280;65885;55.848;35.916;2023-04-24T10:35:57;99192.41;;;27.31;17.66
76940;BME280;65885;55.848;35.916;2023-04-24T10:38:26;99183.75;;;27.21;18.34
76940;BME280;65885;55.848;35.916;2023-04-24T10:41:08;99190.25;;;27.27;17.94
76940;BME280;65885;55.848;35.916;2023-04-24T10:43:40;99177.63;;;27.50;17.52
76940;BME280;65885;55.848;35.916;2023-04-24T10:46:08;99180.69;;;27.78;17.30
76940;BME280;65885;55.848;35.916;2023-04-24T10:48:42;99182.91;;;27.98;16.61
76940;BME280;65885;55.848;35.916;2023-04-24T10:51:11;99186.44;;;27.98;16.54
76940;BME280;65885;55.848;35.916;2023-04-24T10:53:39;99183.81;;;27.90;16.74
76940;BME280;65885;55.848;35.916;2023-04-24T10:56:09;99182.16;;;27.81;16.83
76940;BME280;65885;55.848;35.916;2023-04-24T10:58:38;99170.47;;;27.74;17.94
76940;BME280;65885;55.848;35.916;2023-04-24T11:01:06;99149.34;;;27.77;18.29
76940;BME280;65885;55.848;35.916;2023-04-24T11:03:34;99161.22;;;27.91;18.35
76940;BME280;65885;55.848;35.916;2023-04-24T11:06:03;99147.19;;;28.10;18.44
76940;BME280;65885;55.848;35.916;2023-04-24T11:08:36;99152.75;;;28.32;17.67
76940;BME280;65885;55.848;35.916;2023-04-24T11:11:10;99158.53;;;28.43;17.34
76940;BME280;65885;55.848;35.916;2023-04-24T11:14:01;99156.50;;;28.45;16.76
76940;BME280;65885;55.848;35.916;2023-04-24T11:16:30;99155.63;;;28.30;16.32
76940;BME280;65885;55.848;35.916;2023-04-24T11:19:03;99161.13;;;27.99;16.96
76940;BME280;65885;55.848;35.916;2023-04-24T11:21:36;99159.69;;;27.65;17.43
76940;BME280;65885;55.848;35.916;2023-04-24T11:24:37;99149.50;;;27.30;17.44
76940;BME280;65885;55.848;35.916;2023-04-24T11:27:14;99151.66;;;26.95;17.89
76940;BME280;65885;55.848;35.916;2023-04-24T11:29:43;99144.38;;;26.73;17.73
76940;BME280;65885;55.848;35.916;2023-04-24T11:32:23;99148.81;;;26.49;17.84
76940;BME280;65885;55.848;35.916;2023-04-24T11:34:54;99141.78;;;26.40;18.31
76940;BME280;65885;55.848;35.916;2023-04-24T11:37:23;99134.19;;;26.44;18.76
76940;BME280;65885;55.848;35.916;2023-04-24T11:39:53;99132.97;;;26.63;18.75
76940;BME280;65885;55.848;35.916;2023-04-24T11:42:25;99131.50;;;26.91;18.83
76940;BME280;65885;55.848;35.916;2023-04-24T11:44:53;99134.88;;;27.24;18.66
76940;BME280;65885;55.848;35.916;2023-04-24T11:47:28;99131.81;;;27.58;17.78
76940;BME280;65885;55.848;35.916;2023-04-24T11:49:56;99139.00;;;27.89;17.37
76940;BME280;65885;55.848;35.916;2023-04-24T11:52:24;99125.06;;;28.00;16.58
76940;BME280;65885;55.848;35.916;2023-04-24T11:54:53;99132.31;;;28.00;16.45
76940;BME280;65885;55.848;35.916;2023-04-24T11:57:23;99131.44;;;27.84;16.12
76940;BME280;65885;55.848;35.916;2023-04-24T11:59:53;99126.88;;;27.62;16.22
76940;BME280;65885;55.848;35.916;2023-04-24T12:02:22;99122.50;;;27.38;16.45
76940;BME280;65885;55.848;35.916;2023-04-24T12:04:50;99114.69;;;27.20;17.16
76940;BME280;65885;55.848;35.916;2023-04-24T12:07:19;99108.19;;;27.15;17.57
76940;BME280;65885;55.848;35.916;2023-04-24T12:09:54;99107.00;;;27.17;17.90
76940;BME280;65885;55.848;35.916;2023-04-24T12:12:29;99112.44;;;27.32;18.38
76940;BME280;65885;55.848;35.916;2023-04-24T12:15:08;99103.63;;;27.61;18.40
76940;BME280;65885;55.848;35.916;2023-04-24T12:17:41;99099.00;;;27.92;17.76
76940;BME280;65885;55.848;35.916;2023-04-24T12:20:11;99099.44;;;28.19;16.94
76940;BME280;65885;55.848;35.916;2023-04-24T12:22:48;99105.84;;;28.33;16.43
76940;BME280;65885;55.848;35.916;2023-04-24T12:25:24;99093.31;;;28.40;16.10
76940;BME280;65885;55.848;35.916;2023-04-24T12:28:08;99094.81;;;28.42;16.31
76940;BME280;65885;55.848;35.916;2023-04-24T12:30:40;99094.03;;;28.34;16.11
76940;BME280;65885;55.848;35.916;2023-04-24T12:33:10;99087.22;;;28.23;16.86
76940;BME280;65885;55.848;35.916;2023-04-24T12:35:40;99098.09;;;28.15;16.89
76940;BME280;65885;55.848;35.916;2023-04-24T12:38:09;99091.78;;;28.08;16.71
76940;BME280;65885;55.848;35.916;2023-04-24T12:40:38;99089.69;;;27.95;16.21
76940;BME280;65885;55.848;35.916;2023-04-24T12:43:15;99088.44;;;27.68;16.23
76940;BME280;65885;55.848;35.916;2023-04-24T12:45:44;99084.50;;;27.33;16.57
76940;BME280;65885;55.848;35.916;2023-04-24T12:48:12;99081.50;;;26.97;16.58
76940;BME280;65885;55.848;35.916;2023-04-24T12:50:47;99072.59;;;26.65;16.58
76940;BME280;65885;55.848;35.916;2023-04-24T12:53:17;99069.47;;;26.37;16.57
76940;BME280;65885;55.848;35.916;2023-04-24T12:55:45;99072.06;;;26.14;16.66
76940;BME280;65885;55.848;35.916;2023-04-24T12:58:20;99067.25;;;25.93;17.29
76940;BME280;65885;55.848;35.916;2023-04-24T13:00:49;99070.63;;;25.87;18.02
76940;BME280;65885;55.848;35.916;2023-04-24T13:03:19;99072.28;;;25.88;17.87